sensor_id;sensor_type;location;lat;lon;timestamp;pressure;altitude;pressure_sealevel;temperature;humidity
22582;BME280;47125;48.542;9.052;2022-12-05T00:09:54;95738.25;;;4.07;nan
22582;BME280;47125;48.542;9.052;2022-12-05T00:19:57;95759.41;;;4.14;nan
22582;BME280;47125;48.542;9.052;2022-12-05T00:30:02;95750.03;;;4.44;nan
22582;BME280;47125;48.542;9.052;2022-12-05T00:40:07;95771.59;;;4.48;nan
22582;BME280;47125;48.542;9.052;2022-12-05T00:50:11;95792.31;;;4.37;nan
22582;BME280;47125;48.542;9.052;2022-12-05T01:00:14;95805.94;;;4.02;nan
22582;BME280;47125;48.542;9.052;2022-12-05T01:10:18;95820.13;;;3.94;nan
22582;BME280;47125;48.542;9.052;2022-12-05T01:20:20;95812.63;;;3.98;nan
22582;BME280;47125;48.542;9.052;2022-12-05T01:30:24;95820.13;;;3.87;nan
22582;BME280;47125;48.542;9.052;2022-12-05T01:40:27;95821.75;;;3.95;nan
22582;BME280;47125;48.542;9.052;2022-12-05T01:50:31;95822.91;;;3.73;nan
22582;BME280;47125;48.542;9.052;2022-12-05T02:00:34;95840.84;;;3.97;nan
22582;BME280;47125;48.542;9.052;2022-12-05T02:10:39;95855.19;;;3.62;nan
22582;BME280;47125;48.542;9.052;2022-12-05T02:20:45;95880.41;;;3.71;nan
22582;BME280;47125;48.542;9.052;2022-12-05T02:30:53;95890.88;;;3.58;nan
22582;BME280;47125;48.542;9.052;2022-12-05T02:41:00;95864.06;;;4.15;nan
22582;BME280;47125;48.542;9.052;2022-12-05T02:51:07;95864.31;;;4.39;nan
22582;BME280;47125;48.542;9.052;2022-12-05T03:01:11;95866.97;;;4.46;nan
22582;BME280;47125;48.542;9.052;2022-12-05T03:11:15;95865.53;;;4.43;nan
22582;BME280;47125;48.542;9.052;2022-12-05T03:21:20;95873.66;;;4.49;nan
22582;BME280;47125;48.542;9.052;2022-12-05T03:31:30;95849.06;;;4.68;nan
22582;BME280;47125;48.542;9.052;2022-12-05T03:41:37;95864.94;;;4.74;nan
22582;BME280;47125;48.542;9.052;2022-12-05T03:51:44;95849.28;;;4.79;nan
22582;BME280;47125;48.542;9.052;2022-12-05T04:01:49;95860.66;;;4.73;nan
22582;BME280;47125;48.542;9.052;2022-12-05T04:11:56;95879.16;;;4.60;nan
22582;BME280;47125;48.542;9.052;2022-12-05T04:22:00;95865.94;;;4.67;nan
22582;BME280;47125;48.542;9.052;2022-12-05T04:32:05;95882.63;;;4.48;nan
22582;BME280;47125;48.542;9.052;2022-12-05T04:42:11;95897.84;;;4.39;nan
22582;BME280;47125;48.542;9.052;2022-12-05T04:52:16;95896.44;;;4.63;nan
22582;BME280;47125;48.542;9.052;2022-12-05T05:02:20;95901.16;;;4.67;nan
22582;BME280;47125;48.542;9.052;2022-12-05T05:12:27;95918.84;;;4.60;nan
22582;BME280;47125;48.542;9.052;2022-12-05T05:22:29;95919.22;;;4.57;nan
22582;BME280;47125;48.542;9.052;2022-12-05T05:32:33;95942.41;;;4.49;nan
22582;BME280;47125;48.542;9.052;2022-12-05T05:42:40;95926.56;;;4.62;nan
22582;BME280;47125;48.542;9.052;2022-12-05T05:52:44;95928.19;;;4.63;nan
22582;BME280;47125;48.542;9.052;2022-12-05T06:02:46;95964.00;;;4.59;nan
22582;BME280;47125;48.542;9.052;2022-12-05T06:12:50;95978.63;;;4.41;nan
22582;BME280;47125;48.542;9.052;2022-12-05T06:22:53;95982.72;;;4.64;nan
22582;BME280;47125;48.542;9.052;2022-12-05T06:32:57;95984.59;;;4.83;nan
22582;BME280;47125;48.542;9.052;2022-12-05T06:42:59;95977.25;;;4.85;nan
22582;BME280;47125;48.542;9.052;2022-12-05T06:53:03;95997.22;;;4.94;nan
22582;BME280;47125;48.542;9.052;2022-12-05T07:03:06;96029.25;;;4.45;nan
22582;BME280;47125;48.542;9.052;2022-12-05T07:13:10;96033.19;;;4.75;nan
22582;BME280;47125;48.542;9.052;2022-12-05T07:23:15;96030.81;;;4.33;nan
22582;BME280;47125;48.542;9.052;2022-12-05T07:33:19;96038.72;;;4.80;nan
22582;BME280;47125;48.542;9.052;2022-12-05T07:43:22;96044.94;;;4.60;nan
22582;BME280;47125;48.542;9.052;2022-12-05T07:53:26;96044.00;;;4.87;nan
22582;BME280;47125;48.542;9.052;2022-12-05T08:03:29;96061.84;;;4.59;nan
22582;BME280;47125;48.542;9.052;2022-12-05T08:13:33;96062.91;;;4.71;nan
22582;BME280;47125;48.542;9.052;2022-12-05T08:23:36;96097.75;;;4.40;nan
22582;BME280;47125;48.542;9.052;2022-12-05T08:33:40;96096.13;;;4.93;nan
22582;BME280;47125;48.542;9.052;2022-12-05T08:43:43;96087.47;;;5.25;nan
22582;BME280;47125;48.542;9.052;2022-12-05T08:53:47;96088.28;;;5.39;nan
22582;BME280;47125;48.542;9.052;2022-12-05T09:03:49;96104.38;;;5.57;nan
22582;BME280;47125;48.542;9.052;2022-12-05T09:13:54;96123.75;;;5.57;nan
22582;BME280;47125;48.542;9.052;2022-12-05T09:23:57;96132.91;;;5.75;nan
22582;BME280;47125;48.542;9.052;2022-12-05T09:34:01;96150.88;;;5.86;nan
22582;BME280;47125;48.542;9.052;2022-12-05T09:44:04;96145.56;;;5.86;nan
22582;BME280;47125;48.542;9.052;2022-12-05T09:54:12;96156.00;;;5.94;nan
22582;BME280;47125;48.542;9.052;2022-12-05T10:04:21;96159.84;;;6.04;nan
22582;BME280;47125;48.542;9.052;2022-12-05T10:14:30;96157.63;;;6.15;nan
22582;BME280;47125;48.542;9.052;2022-12-05T10:24:36;96151.06;;;6.24;nan
22582;BME280;47125;48.542;9.052;2022-12-05T10:34:41;96136.75;;;6.38;nan
22582;BME280;47125;48.542;9.052;2022-12-05T10:44:54;96139.22;;;6.39;nan
22582;BME280;47125;48.542;9.052;2022-12-05T10:54:59;96147.94;;;6.53;nan
22582;BME280;47125;48.542;9.052;2022-12-05T11:05:04;96120.56;;;6.65;nan
22582;BME280;47125;48.542;9.052;2022-12-05T11:15:18;96128.69;;;6.77;nan
22582;BME280;47125;48.542;9.052;2022-12-05T11:25:24;96131.16;;;6.79;nan
22582;BME280;47125;48.542;9.052;2022-12-05T11:35:28;96132.06;;;6.97;nan
22582;BME280;47125;48.542;9.052;2022-12-05T11:45:34;96134.56;;;6.92;nan
22582;BME280;47125;48.542;9.052;2022-12-05T11:55:41;96138.03;;;7.31;nan
22582;BME280;47125;48.542;9.052;2022-12-05T12:05:49;96120.63;;;7.41;nan
22582;BME280;47125;48.542;9.052;2022-12-05T12:16:00;96114.22;;;7.49;nan
22582;BME280;47125;48.542;9.052;2022-12-05T12:26:10;96116.91;;;7.42;nan
22582;BME280;47125;48.542;9.052;2022-12-05T12:36:16;96122.97;;;7.56;nan
22582;BME280;47125;48.542;9.052;2022-12-05T12:46:31;96131.22;;;7.48;nan
22582;BME280;47125;48.542;9.052;2022-12-05T12:56:42;96120.66;;;7.66;nan
22582;BME280;47125;48.542;9.052;2022-12-05T13:06:49;96123.94;;;7.61;nan
22582;BME280;47125;48.542;9.052;2022-12-05T13:16:56;96111.53;;;7.80;nan
22582;BME280;47125;48.542;9.052;2022-12-05T13:27:00;96100.97;;;7.98;nan
22582;BME280;47125;48.542;9.052;2022-12-05T13:37:09;96112.63;;;7.97;nan
22582;BME280;47125;48.542;9.052;2022-12-05T13:47:31;96122.38;;;7.78;nan
22582;BME280;47125;48.542;9.052;2022-12-05T13:57:46;96130.16;;;7.80;nan
22582;BME280;47125;48.542;9.052;2022-12-05T14:07:49;96133.13;;;7.65;nan
22582;BME280;47125;48.542;9.052;2022-12-05T14:17:56;96132.84;;;7.42;nan
22582;BME280;47125;48.542;9.052;2022-12-05T14:28:02;96141.75;;;7.30;nan
22582;BME280;47125;48.542;9.052;2022-12-05T14:38:19;96140.94;;;7.22;nan
22582;BME280;47125;48.542;9.052;2022-12-05T14:48:25;96132.59;;;7.19;nan
22582;BME280;47125;48.542;9.052;2022-12-05T14:58:32;96143.47;;;7.11;nan
22582;BME280;47125;48.542;9.052;2022-12-05T15:08:39;96142.59;;;7.24;nan
22582;BME280;47125;48.542;9.052;2022-12-05T15:18:46;96139.41;;;7.08;nan
22582;BME280;47125;48.542;9.052;2022-12-05T15:29:00;96142.66;;;7.10;nan
22582;BME280;47125;48.542;9.052;2022-12-05T15:39:15;96147.16;;;7.03;nan
22582;BME280;47125;48.542;9.052;2022-12-05T15:49:22;96151.47;;;6.98;nan
22582;BME280;47125;48.542;9.052;2022-12-05T15:59:27;96182.75;;;6.96;nan
22582;BME280;47125;48.542;9.052;2022-12-05T16:09:36;96186.00;;;6.91;nan
22582;BME280;47125;48.542;9.052;2022-12-05T16:19:41;96192.97;;;6.79;nan
22582;BME280;47125;48.542;9.052;2022-12-05T16:29:43;96186.47;;;6.82;nan
22582;BME280;47125;48.542;9.052;2022-12-05T16:39:47;96203.19;;;6.89;nan
22582;BME280;47125;48.542;9.052;2022-12-05T16:49:50;96195.84;;;6.84;nan
22582;BME280;47125;48.542;9.052;2022-12-05T16:59:54;96194.81;;;6.85;nan
22582;BME280;47125;48.542;9.052;2022-12-05T17:09:58;96201.56;;;6.88;nan
22582;BME280;47125;48.542;9.052;2022-12-05T17:20:02;96194.63;;;6.87;nan
22582;BME280;47125;48.542;9.052;2022-12-05T17:30:06;96208.31;;;6.77;nan
22582;BME280;47125;48.542;9.052;2022-12-05T17:40:10;96215.44;;;6.77;nan
22582;BME280;47125;48.542;9.052;2022-12-05T17:50:14;96210.38;;;6.75;nan
22582;BME280;47125;48.542;9.052;2022-12-05T18:00:18;96216.50;;;6.76;nan
22582;BME280;47125;48.542;9.052;2022-12-05T18:10:21;96213.03;;;6.69;nan
22582;BME280;47125;48.542;9.052;2022-12-05T18:20:26;96215.06;;;6.73;nan
22582;BME280;47125;48.542;9.052;2022-12-05T18:30:37;96205.66;;;6.71;68.11
22582;BME280;47125;48.542;9.052;2022-12-05T18:40:39;96211.84;;;7.22;78.44
22582;BME280;47125;48.542;9.052;2022-12-05T18:50:43;96217.94;;;6.72;69.05
22582;BME280;47125;48.542;9.052;2022-12-05T19:00:46;96227.94;;;6.63;68.85
22582;BME280;47125;48.542;9.052;2022-12-05T19:10:50;96228.78;;;6.63;68.65
22582;BME280;47125;48.542;9.052;2022-12-05T19:20:52;96235.91;;;6.63;68.91
22582;BME280;47125;48.542;9.052;2022-12-05T19:30:59;96237.09;;;6.67;68.89
22582;BME280;47125;48.542;9.052;2022-12-05T19:41:02;96238.59;;;6.37;70.04
22582;BME280;47125;48.542;9.052;2022-12-05T19:51:06;96231.44;;;6.24;70.51
22582;BME280;47125;48.542;9.052;2022-12-05T20:01:09;96229.59;;;6.51;70.03
22582;BME280;47125;48.542;9.052;2022-12-05T20:11:16;96234.69;;;6.13;71.12
22582;BME280;47125;48.542;9.052;2022-12-05T20:21:19;96234.72;;;6.39;70.76
22582;BME280;47125;48.542;9.052;2022-12-05T20:31:25;96229.59;;;6.38;70.77
22582;BME280;47125;48.542;9.052;2022-12-05T20:41:27;96235.13;;;6.43;71.11
22582;BME280;47125;48.542;9.052;2022-12-05T20:51:33;96233.06;;;6.45;71.01
22582;BME280;47125;48.542;9.052;2022-12-05T21:01:35;96242.44;;;6.47;71.09
22582;BME280;47125;48.542;9.052;2022-12-05T21:11:40;96255.09;;;6.52;70.61
22582;BME280;47125;48.542;9.052;2022-12-05T21:21:43;96244.09;;;6.48;70.36
22582;BME280;47125;48.542;9.052;2022-12-05T21:31:48;96240.22;;;6.38;70.96
22582;BME280;47125;48.542;9.052;2022-12-05T21:41:51;96234.72;;;6.39;71.15
22582;BME280;47125;48.542;9.052;2022-12-05T21:51:55;96242.03;;;6.44;71.18
22582;BME280;47125;48.542;9.052;2022-12-05T22:01:57;96249.59;;;6.40;71.43
22582;BME280;47125;48.542;9.052;2022-12-05T22:12:01;96240.84;;;6.40;71.29
22582;BME280;47125;48.542;9.052;2022-12-05T22:22:04;96236.13;;;6.42;71.54
22582;BME280;47125;48.542;9.052;2022-12-05T22:32:08;96237.38;;;6.39;71.11
22582;BME280;47125;48.542;9.052;2022-12-05T22:42:10;96234.31;;;6.36;71.18
22582;BME280;47125;48.542;9.052;2022-12-05T22:52:14;96228.41;;;6.34;70.82
22582;BME280;47125;48.542;9.052;2022-12-05T23:02:17;96221.44;;;6.39;71.10
22582;BME280;47125;48.542;9.052;2022-12-05T23:12:21;96212.66;;;6.39;71.09
22582;BME280;47125;48.542;9.052;2022-12-05T23:22:23;96212.44;;;6.40;71.27
22582;BME280;47125;48.542;9.052;2022-12-05T23:32:27;96208.78;;;6.35;71.14
22582;BME280;47125;48.542;9.052;2022-12-05T23:42:30;96205.53;;;6.33;70.85
22582;BME280;47125;48.542;9.052;2022-12-05T23:52:35;96213.28;;;6.41;70.76
